Startpagina
METAR-TAF:

METAR-TAF

Vliegvelden :

Ndjamena, Tsjaad

breedte: 12-08N, lengte: 015-02E, hoogte: 295 m

Actueel weer

Dit bericht is 42 minuten geleden gemaakt, om 11:00 UTC
Wind 10 kt uit het noorden, variërend tussen het noorden en het oosten
Temperatuur 37°C
Vochtigheid 9%
Druk 1010 hPa
Zicht: 4500 m
verspreid stof

METAR: FTTJ 251100Z 36010KT 360V100 4500 DU NSC 37/M01 Q1010 BECMG 7000

Tijdstip: 12:42 (11:42 UTC)

Verwachting

Dit bericht is 5 uur en het 31 minuten geleden gemaakt, om 06:11 UTC
Verwachting geldig van 25 om 06 UTC tot 26 om 12 UTC
Wind 2 kt uit variabele richting
Zicht: 1000 m
verspreid stof
Wijzigt naar
van 25 om 07 UTC tot 25 om 10 UTC
Wind 12 kt uit het noordoosten
Zicht: 6000 m
Tijdelijke
van 26 om 00 UTC tot 26 om 08 UTC
Zicht: 3500 m
verspreid stof

TAF: FTTJ 250611Z 2506/2612 VRB02KT 1000 DU NSC BECMG 2507/2510 04012KT 6000 NSW TEMPO 2600/2608 3500 DU

Waarnemingen en weersverwachtingen van meer dan 4000 vliegvelden (METAR en TAF).

De beschikbare stations zijn de gele en rode punten op de kaart.

Ga met uw muis naar het station om de naam te zien.

Klik dan om waarnemingen en weersverwachtingen te zien.

kaart wijzigen: klik op de groene knoppen met een zwart kruis om in te zoomen, op de groene knop met een streepje om uit te zoomen of op de groene pijlen voor aangrenzende kaarten.


METAR-TAF: